Williston, VT

5:03 AM EDT on September 17, 2014 (GMT -0400)
Fairway Drive | Change Station
CLOSE
Current Station
Personal Weather Station
Location: Williston, VT
Elevation: 541 ft
Nearby Weather Stations

Elev 541 ft 44.44 °N, 73.06 °W | Updated 2 minutes ago

Clear
Clear
45.4 °F
Feels Like 45 °F
N
0.0
Wind Variable Wind from SE
Gusts 0.0 mph

Today
High -- | Low -- °F
--% Chance of Precip.
Yesterday
High -- | Low -- °F
Precip. -- in
6:33 AM 6:59 PM
Last Quarter, 38% visible
Pressure 30.00 in
Visibility 0.8 miles
Clouds
Windchill 45 °F
Dew Point 43 °F
Humidity 92%
Rainfall 0.00 in
Snow Depth Not available.
UV Not available.
Pollen .40 out of 12
PM2.5 Good
Flu Activity Not available.
METAR KBTV 170854Z AUTO 00000KT 3/4SM R15/P6000FT BR VV002 07/06 A3000 RMK AO2 SLP158 T00720056 53002

More Conditions Fewer Conditions

Pressure 30.00 in
Visibility 0.8 miles
Clouds
Windchill 45 °F
Dew Point 43 °F
Humidity 92%
Rainfall 0.00 in
Snow Depth Not available.
UV Not available.
Pollen .40 out of 12
PM2.5 Good
Flu Activity Not available.
METAR KBTV 170854Z AUTO 00000KT 3/4SM R15/P6000FT BR VV002 07/06 A3000 RMK AO2 SLP158 T00720056 53002

More Conditions Fewer Conditions

10-Day Weather Forecast

Almanac

Astronomy

Sep. 17, 2014 Rise Set
Actual Time 6:33 AM EDT 6:59 PM EDT
Civil Twilight 6:04 AM EDT 7:28 PM EDT
Nautical Twilight 5:29 AM EDT 8:02 PM EDT
Astronomical Twilight 4:54 AM EDT 8:37 PM EDT
Moon 12:21 AM EDT 3:16 PM EDT
Length of Visible Light 13h 23m
Length of Day
12h 25m
Tomorrow will be 3m 2s shorter.
Last Quarter, 38% of the Moon is Illuminated
Today
Last Quarter
Sep 24
New
Oct 1
First Quarter
Oct 8
Full
Oct 15
Last Quarter

Today's Extremes

State Highs State Lows

Community

WunderPhotos

Upload Photos

1,753,991 photos uploaded!

Nearby

Air Quality

  Air Quality AQ Index Pollutant
Yesterday Good
OZONE
Yesterday Good
PM2.5
Current Good
PM2.5
Wednesday Good
PM2.5
Wednesday Good
OZONE
Thursday Good
PM2.5
Thursday Good
OZONE
Friday Good
PM2.5
Friday Good
OZONE

Snow Depth

Station Depth Elevation
No new snow has been reported.

Earthquake Activity

City Distance Mag. Time & Date
No recent earthquake activity has been reported nearby.
Minimum magnitude displayed is 2.5.

Coastal Water Temperatures

Place Temperature
No Stations Reporting

Nearby Weather Stations